sensor_id;sensor_type;location;lat;lon;timestamp;pressure;altitude;pressure_sealevel;temperature;humidity
58373;BME280;44177;43.356;27.672;2024-01-30T00:00:07;100296.06;;;-1.35;100.00
58373;BME280;44177;43.356;27.672;2024-01-30T00:02:33;100287.88;;;-1.40;100.00
58373;BME280;44177;43.356;27.672;2024-01-30T00:04:59;100301.00;;;-1.32;100.00
58373;BME280;44177;43.356;27.672;2024-01-30T00:07:24;100302.63;;;-1.31;100.00
58373;BME280;44177;43.356;27.672;2024-01-30T00:09:50;100299.56;;;-1.34;100.00
58373;BME280;44177;43.356;27.672;2024-01-30T00:12:16;100302.25;;;-1.34;100.00
58373;BME280;44177;43.356;27.672;2024-01-30T00:14:42;100301.00;;;-1.32;100.00
58373;BME280;44177;43.356;27.672;2024-01-30T00:17:09;100298.13;;;-1.37;100.00
58373;BME280;44177;43.356;27.672;2024-01-30T00:19:35;100300.22;;;-1.39;100.00
58373;BME280;44177;43.356;27.672;2024-01-30T00:22:00;100258.53;;;-1.60;100.00
58373;BME280;44177;43.356;27.672;2024-01-30T00:24:26;100305.13;;;-1.36;100.00
58373;BME280;44177;43.356;27.672;2024-01-30T00:26:51;100293.38;;;-1.35;100.00
58373;BME280;44177;43.356;27.672;2024-01-30T00:29:17;100306.34;;;-1.32;100.00
58373;BME280;44177;43.356;27.672;2024-01-30T00:31:45;100314.97;;;-1.30;100.00
58373;BME280;44177;43.356;27.672;2024-01-30T00:34:11;100304.25;;;-1.30;100.00
58373;BME280;44177;43.356;27.672;2024-01-30T00:36:37;100297.09;;;-1.36;100.00
58373;BME280;44177;43.356;27.672;2024-01-30T00:39:03;100312.50;;;-1.31;100.00
58373;BME280;44177;43.356;27.672;2024-01-30T00:41:32;100312.91;;;-1.28;100.00
58373;BME280;44177;43.356;27.672;2024-01-30T00:43:57;100268.59;;;-1.55;100.00
58373;BME280;44177;43.356;27.672;2024-01-30T00:46:23;100293.13;;;-1.27;100.00
58373;BME280;44177;43.356;27.672;2024-01-30T00:48:48;100308.78;;;-1.23;100.00
58373;BME280;44177;43.356;27.672;2024-01-30T00:51:14;100294.78;;;-1.32;100.00
58373;BME280;44177;43.356;27.672;2024-01-30T00:53:40;100251.50;;;-1.54;100.00
58373;BME280;44177;43.356;27.672;2024-01-30T00:56:07;100285.59;;;-1.43;100.00
58373;BME280;44177;43.356;27.672;2024-01-30T00:58:33;100294.38;;;-1.29;100.00
58373;BME280;44177;43.356;27.672;2024-01-30T01:00:58;100297.28;;;-1.31;100.00
58373;BME280;44177;43.356;27.672;2024-01-30T01:03:24;100295.84;;;-1.33;100.00
58373;BME280;44177;43.356;27.672;2024-01-30T01:05:50;100289.84;;;-1.29;100.00
58373;BME280;44177;43.356;27.672;2024-01-30T01:08:15;100262.34;;;-1.42;100.00
58373;BME280;44177;43.356;27.672;2024-01-30T01:10:41;100294.75;;;-1.25;100.00
58373;BME280;44177;43.356;27.672;2024-01-30T01:13:06;100281.97;;;-1.23;100.00
58373;BME280;44177;43.356;27.672;2024-01-30T01:15:32;100285.72;;;-1.31;100.00
58373;BME280;44177;43.356;27.672;2024-01-30T01:17:57;100292.50;;;-1.29;100.00
58373;BME280;44177;43.356;27.672;2024-01-30T01:20:23;100287.75;;;-1.27;100.00
58373;BME280;44177;43.356;27.672;2024-01-30T01:22:49;100287.00;;;-1.34;100.00
58373;BME280;44177;43.356;27.672;2024-01-30T01:25:14;100283.44;;;-1.28;100.00
58373;BME280;44177;43.356;27.672;2024-01-30T01:27:40;100303.66;;;-1.32;100.00
58373;BME280;44177;43.356;27.672;2024-01-30T01:30:09;100291.97;;;-1.37;100.00
58373;BME280;44177;43.356;27.672;2024-01-30T01:32:35;100297.31;;;-1.37;100.00
58373;BME280;44177;43.356;27.672;2024-01-30T01:35:00;100291.97;;;-1.37;100.00
58373;BME280;44177;43.356;27.672;2024-01-30T01:37:26;100298.09;;;-1.30;100.00
58373;BME280;44177;43.356;27.672;2024-01-30T01:39:52;100266.06;;;-1.44;100.00
58373;BME280;44177;43.356;27.672;2024-01-30T01:42:17;100290.69;;;-1.35;100.00
58373;BME280;44177;43.356;27.672;2024-01-30T01:44:43;100275.06;;;-1.38;100.00
58373;BME280;44177;43.356;27.672;2024-01-30T01:47:08;100272.59;;;-1.39;100.00
58373;BME280;44177;43.356;27.672;2024-01-30T01:49:34;100283.06;;;-1.31;100.00
58373;BME280;44177;43.356;27.672;2024-01-30T01:52:00;100285.34;;;-1.35;100.00
58373;BME280;44177;43.356;27.672;2024-01-30T01:54:26;100246.72;;;-1.52;100.00
58373;BME280;44177;43.356;27.672;2024-01-30T01:56:53;100206.94;;;-1.74;100.00
58373;BME280;44177;43.356;27.672;2024-01-30T01:59:20;100270.88;;;-1.27;100.00
58373;BME280;44177;43.356;27.672;2024-01-30T02:01:46;100242.94;;;-1.38;100.00
58373;BME280;44177;43.356;27.672;2024-01-30T02:04:14;100250.13;;;-1.32;100.00
58373;BME280;44177;43.356;27.672;2024-01-30T02:06:40;100262.28;;;-1.36;100.00
58373;BME280;44177;43.356;27.672;2024-01-30T02:09:06;100205.88;;;-1.66;100.00
58373;BME280;44177;43.356;27.672;2024-01-30T02:11:31;100246.06;;;-1.41;100.00
58373;BME280;44177;43.356;27.672;2024-01-30T02:14:01;100266.34;;;-1.27;100.00
58373;BME280;44177;43.356;27.672;2024-01-30T02:16:27;100267.22;;;-1.33;100.00
58373;BME280;44177;43.356;27.672;2024-01-30T02:18:53;100250.13;;;-1.32;100.00
58373;BME280;44177;43.356;27.672;2024-01-30T02:21:19;100249.75;;;-1.42;100.00
58373;BME280;44177;43.356;27.672;2024-01-30T02:23:46;100210.63;;;-1.68;100.00
58373;BME280;44177;43.356;27.672;2024-01-30T02:26:12;100263.16;;;-1.42;100.00
58373;BME280;44177;43.356;27.672;2024-01-30T02:28:38;100261.09;;;-1.40;100.00
58373;BME280;44177;43.356;27.672;2024-01-30T02:31:04;100248.13;;;-1.43;100.00
58373;BME280;44177;43.356;27.672;2024-01-30T02:33:30;100268.91;;;-1.38;100.00
58373;BME280;44177;43.356;27.672;2024-01-30T02:35:55;100243.25;;;-1.53;100.00
58373;BME280;44177;43.356;27.672;2024-01-30T02:38:21;100260.25;;;-1.40;100.00
58373;BME280;44177;43.356;27.672;2024-01-30T02:40:46;100259.00;;;-1.38;100.00
58373;BME280;44177;43.356;27.672;2024-01-30T02:43:12;100214.34;;;-1.76;100.00
58373;BME280;44177;43.356;27.672;2024-01-30T02:45:37;100217.69;;;-1.81;100.00
58373;BME280;44177;43.356;27.672;2024-01-30T02:48:03;100252.09;;;-1.52;100.00
58373;BME280;44177;43.356;27.672;2024-01-30T02:50:29;100268.28;;;-1.40;100.00
58373;BME280;44177;43.356;27.672;2024-01-30T02:52:54;100276.31;;;-1.40;100.00
58373;BME280;44177;43.356;27.672;2024-01-30T02:55:20;100268.16;;;-1.52;100.00
58373;BME280;44177;43.356;27.672;2024-01-30T02:57:45;100267.91;;;-1.44;100.00
58373;BME280;44177;43.356;27.672;2024-01-30T03:00:11;100231.81;;;-1.67;100.00
58373;BME280;44177;43.356;27.672;2024-01-30T03:02:37;100272.00;;;-1.41;100.00
58373;BME280;44177;43.356;27.672;2024-01-30T03:05:03;100253.97;;;-1.53;100.00
58373;BME280;44177;43.356;27.672;2024-01-30T03:07:29;100246.53;;;-1.51;100.00
58373;BME280;44177;43.356;27.672;2024-01-30T03:09:55;100266.25;;;-1.45;100.00
58373;BME280;44177;43.356;27.672;2024-01-30T03:12:21;100270.25;;;-1.54;100.00
58373;BME280;44177;43.356;27.672;2024-01-30T03:14:47;100245.53;;;-1.56;100.00
58373;BME280;44177;43.356;27.672;2024-01-30T03:17:12;100276.31;;;-1.40;100.00
58373;BME280;44177;43.356;27.672;2024-01-30T03:19:38;100267.25;;;-1.39;100.00
58373;BME280;44177;43.356;27.672;2024-01-30T03:22:03;100276.75;;;-1.44;100.00
58373;BME280;44177;43.356;27.672;2024-01-30T03:24:29;100275.50;;;-1.41;100.00
58373;BME280;44177;43.356;27.672;2024-01-30T03:26:54;100273.44;;;-1.39;100.00
58373;BME280;44177;43.356;27.672;2024-01-30T03:29:20;100274.88;;;-1.36;100.00
58373;BME280;44177;43.356;27.672;2024-01-30T03:31:45;100275.13;;;-1.45;100.00
58373;BME280;44177;43.356;27.672;2024-01-30T03:34:11;100264.63;;;-1.46;100.00
58373;BME280;44177;43.356;27.672;2024-01-30T03:36:36;100249.25;;;-1.57;100.00
58373;BME280;44177;43.356;27.672;2024-01-30T03:39:02;100267.31;;;-1.46;100.00
58373;BME280;44177;43.356;27.672;2024-01-30T03:41:28;100268.94;;;-1.45;100.00
58373;BME280;44177;43.356;27.672;2024-01-30T03:43:53;100276.16;;;-1.46;100.00
58373;BME280;44177;43.356;27.672;2024-01-30T03:46:19;100275.06;;;-1.38;100.00
58373;BME280;44177;43.356;27.672;2024-01-30T03:48:47;100273.00;;;-1.36;100.00
58373;BME280;44177;43.356;27.672;2024-01-30T03:51:13;100266.00;;;-1.37;100.00
58373;BME280;44177;43.356;27.672;2024-01-30T03:53:43;100270.75;;;-1.39;100.00
58373;BME280;44177;43.356;27.672;2024-01-30T03:56:09;100258.81;;;-1.43;100.00
58373;BME280;44177;43.356;27.672;2024-01-30T03:58:35;100262.72;;;-1.39;100.00
58373;BME280;44177;43.356;27.672;2024-01-30T04:01:01;100259.59;;;-1.36;100.00
58373;BME280;44177;43.356;27.672;2024-01-30T04:03:26;100265.56;;;-1.34;100.00
58373;BME280;44177;43.356;27.672;2024-01-30T04:05:52;100230.28;;;-1.56;100.00
58373;BME280;44177;43.356;27.672;2024-01-30T04:08:18;100225.38;;;-1.59;100.00
58373;BME280;44177;43.356;27.672;2024-01-30T04:10:44;100264.78;;;-1.41;100.00
58373;BME280;44177;43.356;27.672;2024-01-30T04:13:09;100249.41;;;-1.52;100.00
58373;BME280;44177;43.356;27.672;2024-01-30T04:15:35;100237.31;;;-1.62;100.00
58373;BME280;44177;43.356;27.672;2024-01-30T04:18:01;100275.53;;;-1.48;100.00
58373;BME280;44177;43.356;27.672;2024-01-30T04:20:26;100278.78;;;-1.39;100.00
58373;BME280;44177;43.356;27.672;2024-01-30T04:22:52;100266.09;;;-1.50;100.00
58373;BME280;44177;43.356;27.672;2024-01-30T04:25:17;100281.84;;;-1.35;100.00
58373;BME280;44177;43.356;27.672;2024-01-30T04:27:43;100284.16;;;-1.39;100.00
58373;BME280;44177;43.356;27.672;2024-01-30T04:30:09;100253.78;;;-1.58;100.00
58373;BME280;44177;43.356;27.672;2024-01-30T04:32:35;100283.53;;;-1.41;100.00
58373;BME280;44177;43.356;27.672;2024-01-30T04:35:01;100282.53;;;-1.47;100.00
58373;BME280;44177;43.356;27.672;2024-01-30T04:37:26;100275.53;;;-1.48;100.00
58373;BME280;44177;43.356;27.672;2024-01-30T04:39:52;100273.31;;;-1.51;100.00
58373;BME280;44177;43.356;27.672;2024-01-30T04:42:18;100257.13;;;-1.63;100.00
58373;BME280;44177;43.356;27.672;2024-01-30T04:44:43;100264.09;;;-1.62;100.00
58373;BME280;44177;43.356;27.672;2024-01-30T04:47:09;100278.44;;;-1.49;100.00
58373;BME280;44177;43.356;27.672;2024-01-30T04:49:41;100274.13;;;-1.50;100.00
58373;BME280;44177;43.356;27.672;2024-01-30T04:52:07;100283.38;;;-1.46;100.00
58373;BME280;44177;43.356;27.672;2024-01-30T04:54:33;100268.41;;;-1.61;100.00
58373;BME280;44177;43.356;27.672;2024-01-30T04:57:00;100291.13;;;-1.38;100.00
58373;BME280;44177;43.356;27.672;2024-01-30T04:59:25;100294.66;;;-1.44;100.00
58373;BME280;44177;43.356;27.672;2024-01-30T05:01:51;100296.47;;;-1.38;100.00
58373;BME280;44177;43.356;27.672;2024-01-30T05:04:16;100301.06;;;-1.45;100.00
58373;BME280;44177;43.356;27.672;2024-01-30T05:06:42;100288.13;;;-1.48;100.00
58373;BME280;44177;43.356;27.672;2024-01-30T05:09:08;100264.53;;;-1.65;100.00
58373;BME280;44177;43.356;27.672;2024-01-30T05:11:38;100248.88;;;-1.68;100.00
58373;BME280;44177;43.356;27.672;2024-01-30T05:14:04;100282.31;;;-1.45;100.00
58373;BME280;44177;43.356;27.672;2024-01-30T05:16:31;100294.28;;;-1.48;100.00
58373;BME280;44177;43.356;27.672;2024-01-30T05:18:56;100288.94;;;-1.48;100.00
58373;BME280;44177;43.356;27.672;2024-01-30T05:21:22;100272.31;;;-1.56;100.00
58373;BME280;44177;43.356;27.672;2024-01-30T05:23:47;100284.19;;;-1.46;100.00
58373;BME280;44177;43.356;27.672;2024-01-30T05:26:12;100289.16;;;-1.49;100.00
58373;BME280;44177;43.356;27.672;2024-01-30T05:28:38;100274.53;;;-1.53;100.00
58373;BME280;44177;43.356;27.672;2024-01-30T05:31:04;100281.91;;;-1.42;100.00
58373;BME280;44177;43.356;27.672;2024-01-30T05:33:29;100281.94;;;-1.49;100.00
58373;BME280;44177;43.356;27.672;2024-01-30T05:35:55;100293.03;;;-1.45;100.00
58373;BME280;44177;43.356;27.672;2024-01-30T05:38:20;100285.00;;;-1.45;100.00
58373;BME280;44177;43.356;27.672;2024-01-30T05:40:46;100280.88;;;-1.41;100.00
58373;BME280;44177;43.356;27.672;2024-01-30T05:43:12;100286.59;;;-1.37;100.00
58373;BME280;44177;43.356;27.672;2024-01-30T05:45:37;100292.22;;;-1.46;100.00
58373;BME280;44177;43.356;27.672;2024-01-30T05:48:04;100293.63;;;-1.43;100.00
58373;BME280;44177;43.356;27.672;2024-01-30T05:50:30;100290.16;;;-1.44;100.00
58373;BME280;44177;43.356;27.672;2024-01-30T05:52:55;100308.66;;;-1.42;100.00
58373;BME280;44177;43.356;27.672;2024-01-30T05:55:21;100316.22;;;-1.32;100.00
58373;BME280;44177;43.356;27.672;2024-01-30T05:57:46;100319.13;;;-1.34;100.00
58373;BME280;44177;43.356;27.672;2024-01-30T06:00:12;100309.69;;;-1.43;100.00
58373;BME280;44177;43.356;27.672;2024-01-30T06:02:38;100288.97;;;-1.54;100.00
58373;BME280;44177;43.356;27.672;2024-01-30T06:05:04;100322.03;;;-1.35;100.00
58373;BME280;44177;43.356;27.672;2024-01-30T06:07:29;100319.28;;;-1.29;100.00
58373;BME280;44177;43.356;27.672;2024-01-30T06:09:55;100309.88;;;-1.38;100.00
58373;BME280;44177;43.356;27.672;2024-01-30T06:12:20;100318.72;;;-1.31;100.00
58373;BME280;44177;43.356;27.672;2024-01-30T06:14:46;100316.22;;;-1.32;100.00
58373;BME280;44177;43.356;27.672;2024-01-30T06:17:11;100326.94;;;-1.32;100.00
58373;BME280;44177;43.356;27.672;2024-01-30T06:19:38;100305.00;;;-1.48;100.00
58373;BME280;44177;43.356;27.672;2024-01-30T06:22:07;100330.63;;;-1.27;100.00
58373;BME280;44177;43.356;27.672;2024-01-30T06:24:32;100317.88;;;-1.31;100.00
58373;BME280;44177;43.356;27.672;2024-01-30T06:26:59;100274.38;;;-1.59;100.00
58373;BME280;44177;43.356;27.672;2024-01-30T06:29:26;100312.28;;;-1.30;100.00
58373;BME280;44177;43.356;27.672;2024-01-30T06:31:52;100319.53;;;-1.37;100.00
58373;BME280;44177;43.356;27.672;2024-01-30T06:34:17;100325.66;;;-1.23;100.00
58373;BME280;44177;43.356;27.672;2024-01-30T06:36:43;100345.66;;;-1.25;100.00
58373;BME280;44177;43.356;27.672;2024-01-30T06:39:08;100326.94;;;-1.32;100.00
58373;BME280;44177;43.356;27.672;2024-01-30T06:41:34;100352.44;;;-1.23;100.00
58373;BME280;44177;43.356;27.672;2024-01-30T06:44:01;100352.41;;;-1.16;100.00
58373;BME280;44177;43.356;27.672;2024-01-30T06:46:27;100358.56;;;-1.16;100.00
58373;BME280;44177;43.356;27.672;2024-01-30T06:48:52;100354.88;;;-1.21;100.00
58373;BME280;44177;43.356;27.672;2024-01-30T06:51:18;100352.00;;;-1.20;100.00
58373;BME280;44177;43.356;27.672;2024-01-30T06:53:43;100353.44;;;-1.17;100.00
58373;BME280;44177;43.356;27.672;2024-01-30T06:56:09;100353.81;;;-1.14;100.00
58373;BME280;44177;43.356;27.672;2024-01-30T06:58:34;100338.38;;;-1.18;100.00
58373;BME280;44177;43.356;27.672;2024-01-30T07:01:00;100348.44;;;-1.07;100.00
58373;BME280;44177;43.356;27.672;2024-01-30T07:03:25;100351.69;;;-1.05;100.00
58373;BME280;44177;43.356;27.672;2024-01-30T07:05:51;100356.25;;;-1.05;100.00
58373;BME280;44177;43.356;27.672;2024-01-30T07:08:17;100344.88;;;-1.01;100.00
58373;BME280;44177;43.356;27.672;2024-01-30T07:10:43;100342.78;;;-0.99;100.00
58373;BME280;44177;43.356;27.672;2024-01-30T07:13:09;100354.75;;;-1.01;100.00
58373;BME280;44177;43.356;27.672;2024-01-30T07:15:35;100362.16;;;-0.97;100.00
58373;BME280;44177;43.356;27.672;2024-01-30T07:18:02;100354.75;;;-1.01;100.00
58373;BME280;44177;43.356;27.672;2024-01-30T07:20:27;100352.72;;;-1.06;100.00
58373;BME280;44177;43.356;27.672;2024-01-30T07:22:53;100359.09;;;-1.00;100.00
58373;BME280;44177;43.356;27.672;2024-01-30T07:25:19;100355.97;;;-0.97;100.00
58373;BME280;44177;43.356;27.672;2024-01-30T07:27:46;100364.66;;;-1.02;100.00
58373;BME280;44177;43.356;27.672;2024-01-30T07:30:12;100362.16;;;-0.97;100.00
58373;BME280;44177;43.356;27.672;2024-01-30T07:32:38;100356.09;;;-0.85;100.00
58373;BME280;44177;43.356;27.672;2024-01-30T07:35:03;100364.13;;;-0.85;100.00
58373;BME280;44177;43.356;27.672;2024-01-30T07:37:29;100360.75;;;-0.74;100.00
58373;BME280;44177;43.356;27.672;2024-01-30T07:39:55;100356.97;;;-0.66;100.00
58373;BME280;44177;43.356;27.672;2024-01-30T07:42:20;100352.59;;;-0.60;100.00
58373;BME280;44177;43.356;27.672;2024-01-30T07:44:45;100347.25;;;-0.60;100.00
58373;BME280;44177;43.356;27.672;2024-01-30T07:47:11;100350.34;;;-0.64;100.00
58373;BME280;44177;43.356;27.672;2024-01-30T07:49:36;100350.97;;;-0.61;100.00
58373;BME280;44177;43.356;27.672;2024-01-30T07:52:05;100349.47;;;-0.57;100.00
58373;BME280;44177;43.356;27.672;2024-01-30T07:54:31;100355.66;;;-0.57;100.00
58373;BME280;44177;43.356;27.672;2024-01-30T07:56:59;100362.28;;;-0.59;100.00
58373;BME280;44177;43.356;27.672;2024-01-30T07:59:25;100357.69;;;-0.52;100.00
58373;BME280;44177;43.356;27.672;2024-01-30T08:01:50;100345.78;;;-0.63;100.00
58373;BME280;44177;43.356;27.672;2024-01-30T08:04:16;100350.50;;;-0.58;100.00
58373;BME280;44177;43.356;27.672;2024-01-30T08:06:42;100342.47;;;-0.58;100.00
58373;BME280;44177;43.356;27.672;2024-01-30T08:09:08;100336.66;;;-0.55;100.00
58373;BME280;44177;43.356;27.672;2024-01-30T08:11:34;100317.56;;;-0.66;100.00
58373;BME280;44177;43.356;27.672;2024-01-30T08:13:59;100336.66;;;-0.55;100.00
58373;BME280;44177;43.356;27.672;2024-01-30T08:16:25;100350.22;;;-0.50;100.00
58373;BME280;44177;43.356;27.672;2024-01-30T08:18:50;100349.38;;;-0.44;100.00
58373;BME280;44177;43.356;27.672;2024-01-30T08:21:16;100355.59;;;-0.50;100.00
58373;BME280;44177;43.356;27.672;2024-01-30T08:23:42;100321.28;;;-0.67;100.00
58373;BME280;44177;43.356;27.672;2024-01-30T08:26:08;100366.22;;;-0.37;100.00
58373;BME280;44177;43.356;27.672;2024-01-30T08:28:33;100354.72;;;-0.44;100.00
58373;BME280;44177;43.356;27.672;2024-01-30T08:30:59;100297.06;;;-0.78;100.00
58373;BME280;44177;43.356;27.672;2024-01-30T08:33:24;100361.56;;;-0.48;100.00
58373;BME280;44177;43.356;27.672;2024-01-30T08:35:50;100349.81;;;-0.47;100.00
58373;BME280;44177;43.356;27.672;2024-01-30T08:38:15;100353.09;;;-0.26;100.00
58373;BME280;44177;43.356;27.672;2024-01-30T08:40:41;100345.50;;;-0.29;100.00
58373;BME280;44177;43.356;27.672;2024-01-30T08:43:06;100298.03;;;-0.29;100.00
58373;BME280;44177;43.356;27.672;2024-01-30T08:45:33;100313.31;;;0.08;100.00
58373;BME280;44177;43.356;27.672;2024-01-30T08:47:58;100308.88;;;0.32;100.00
58373;BME280;44177;43.356;27.672;2024-01-30T08:50:24;100305.91;;;0.52;100.00
58373;BME280;44177;43.356;27.672;2024-01-30T08:52:49;100309.56;;;0.58;100.00
58373;BME280;44177;43.356;27.672;2024-01-30T08:55:15;100323.03;;;0.70;100.00
58373;BME280;44177;43.356;27.672;2024-01-30T08:57:41;100328.59;;;0.56;100.00
58373;BME280;44177;43.356;27.672;2024-01-30T09:00:06;100321.28;;;0.63;100.00
58373;BME280;44177;43.356;27.672;2024-01-30T09:02:34;100323.91;;;0.52;100.00
58373;BME280;44177;43.356;27.672;2024-01-30T09:05:00;100347.09;;;0.65;100.00
58373;BME280;44177;43.356;27.672;2024-01-30T09:07:25;100358.81;;;0.70;100.00
58373;BME280;44177;43.356;27.672;2024-01-30T09:09:51;100350.38;;;0.67;100.00
58373;BME280;44177;43.356;27.672;2024-01-30T09:12:16;100372.72;;;0.79;100.00
58373;BME280;44177;43.356;27.672;2024-01-30T09:14:42;100370.13;;;1.03;100.00
58373;BME280;44177;43.356;27.672;2024-01-30T09:17:07;100364.22;;;1.48;100.00
58373;BME280;44177;43.356;27.672;2024-01-30T09:19:33;100335.22;;;1.86;96.25
58373;BME280;44177;43.356;27.672;2024-01-30T09:21:59;100353.47;;;1.84;96.32
58373;BME280;44177;43.356;27.672;2024-01-30T09:24:26;100304.56;;;1.75;95.70
58373;BME280;44177;43.356;27.672;2024-01-30T09:26:52;100324.88;;;1.95;94.50
58373;BME280;44177;43.356;27.672;2024-01-30T09:29:17;100339.66;;;2.33;93.87
58373;BME280;44177;43.356;27.672;2024-01-30T09:31:44;100339.53;;;2.40;92.25
58373;BME280;44177;43.356;27.672;2024-01-30T09:34:10;100333.81;;;2.65;90.67
58373;BME280;44177;43.356;27.672;2024-01-30T09:36:36;100338.78;;;3.02;87.96
58373;BME280;44177;43.356;27.672;2024-01-30T09:39:01;100336.75;;;3.09;86.61
58373;BME280;44177;43.356;27.672;2024-01-30T09:41:27;100329.47;;;2.93;86.15
58373;BME280;44177;43.356;27.672;2024-01-30T09:43:54;100305.75;;;3.29;85.25
58373;BME280;44177;43.356;27.672;2024-01-30T09:46:25;100314.41;;;2.97;85.24
58373;BME280;44177;43.356;27.672;2024-01-30T09:48:54;100329.94;;;2.90;86.43
58373;BME280;44177;43.356;27.672;2024-01-30T09:51:20;100329.63;;;2.57;89.37
58373;BME280;44177;43.356;27.672;2024-01-30T09:53:46;100329.97;;;2.61;89.21
58373;BME280;44177;43.356;27.672;2024-01-30T09:56:14;100319.19;;;2.61;88.74
58373;BME280;44177;43.356;27.672;2024-01-30T09:58:39;100324.47;;;2.27;89.62
58373;BME280;44177;43.356;27.672;2024-01-30T10:01:05;100317.50;;;2.43;90.38
58373;BME280;44177;43.356;27.672;2024-01-30T10:03:31;100325.34;;;2.44;90.95
58373;BME280;44177;43.356;27.672;2024-01-30T10:05:56;100316.13;;;2.40;91.41
58373;BME280;44177;43.356;27.672;2024-01-30T10:08:22;100310.69;;;2.52;90.86
58373;BME280;44177;43.356;27.672;2024-01-30T10:10:49;100309.22;;;2.61;88.86
58373;BME280;44177;43.356;27.672;2024-01-30T10:13:17;100299.16;;;2.28;89.35
58373;BME280;44177;43.356;27.672;2024-01-30T10:15:44;100296.69;;;1.97;90.76
58373;BME280;44177;43.356;27.672;2024-01-30T10:18:10;100303.91;;;2.09;92.46
58373;BME280;44177;43.356;27.672;2024-01-30T10:20:36;100295.03;;;2.08;92.86
58373;BME280;44177;43.356;27.672;2024-01-30T10:23:02;100304.59;;;2.16;92.42
58373;BME280;44177;43.356;27.672;2024-01-30T10:25:29;100290.78;;;2.12;92.20
58373;BME280;44177;43.356;27.672;2024-01-30T10:27:56;100286.88;;;2.32;91.41
58373;BME280;44177;43.356;27.672;2024-01-30T10:30:22;100306.28;;;2.34;91.46
58373;BME280;44177;43.356;27.672;2024-01-30T10:32:48;100304.47;;;2.23;91.06
58373;BME280;44177;43.356;27.672;2024-01-30T10:35:14;100311.63;;;2.17;90.36
58373;BME280;44177;43.356;27.672;2024-01-30T10:37:41;100318.66;;;2.06;89.79
58373;BME280;44177;43.356;27.672;2024-01-30T10:40:09;100309.75;;;2.05;91.43
58373;BME280;44177;43.356;27.672;2024-01-30T10:42:42;100308.81;;;2.12;90.36
58373;BME280;44177;43.356;27.672;2024-01-30T10:45:09;100306.63;;;2.37;89.90
58373;BME280;44177;43.356;27.672;2024-01-30T10:47:39;100272.81;;;2.30;89.52
58373;BME280;44177;43.356;27.672;2024-01-30T10:50:05;100297.69;;;2.49;88.11
58373;BME280;44177;43.356;27.672;2024-01-30T10:52:33;100287.28;;;2.41;87.98
58373;BME280;44177;43.356;27.672;2024-01-30T10:54:59;100297.81;;;2.42;88.87
58373;BME280;44177;43.356;27.672;2024-01-30T10:57:28;100293.69;;;2.23;88.72
58373;BME280;44177;43.356;27.672;2024-01-30T10:59:56;100244.66;;;1.80;89.86
58373;BME280;44177;43.356;27.672;2024-01-30T11:02:23;100299.81;;;2.06;89.79
58373;BME280;44177;43.356;27.672;2024-01-30T11:04:49;100285.72;;;1.87;91.13
58373;BME280;44177;43.356;27.672;2024-01-30T11:07:23;100295.56;;;1.69;91.50
58373;BME280;44177;43.356;27.672;2024-01-30T11:10:07;100286.78;;;1.62;92.72
58373;BME280;44177;43.356;27.672;2024-01-30T11:12:38;100285.63;;;1.46;93.94
58373;BME280;44177;43.356;27.672;2024-01-30T11:15:11;100277.09;;;1.49;94.24
58373;BME280;44177;43.356;27.672;2024-01-30T11:18:02;100280.72;;;1.43;93.48
58373;BME280;44177;43.356;27.672;2024-01-30T11:20:30;100284.47;;;1.42;93.82
58373;BME280;44177;43.356;27.672;2024-01-30T11:23:01;100274.16;;;1.39;94.28
58373;BME280;44177;43.356;27.672;2024-01-30T11:25:33;100230.00;;;1.11;94.42
58373;BME280;44177;43.356;27.672;2024-01-30T11:27:59;100242.03;;;1.08;94.23
58373;BME280;44177;43.356;27.672;2024-01-30T11:33:13;100274.41;;;1.25;94.96
58373;BME280;44177;43.356;27.672;2024-01-30T11:35:44;100263.75;;;1.31;94.83
58373;BME280;44177;43.356;27.672;2024-01-30T11:38:12;100263.75;;;1.31;94.91
58373;BME280;44177;43.356;27.672;2024-01-30T11:40:39;100255.81;;;1.24;95.17
58373;BME280;44177;43.356;27.672;2024-01-30T11:43:06;100259.81;;;1.21;96.74
58373;BME280;44177;43.356;27.672;2024-01-30T11:45:33;100259.81;;;1.21;97.18
58373;BME280;44177;43.356;27.672;2024-01-30T11:47:59;100253.50;;;1.16;96.79
58373;BME280;44177;43.356;27.672;2024-01-30T11:50:35;100253.00;;;1.07;97.26
58373;BME280;44177;43.356;27.672;2024-01-30T11:53:04;100249.50;;;1.06;96.83
58373;BME280;44177;43.356;27.672;2024-01-30T11:55:30;100251.94;;;1.08;97.29
58373;BME280;44177;43.356;27.672;2024-01-30T11:57:59;100199.59;;;0.75;96.66
58373;BME280;44177;43.356;27.672;2024-01-30T12:00:25;100235.38;;;1.11;96.71
58373;BME280;44177;43.356;27.672;2024-01-30T12:02:52;100243.31;;;1.30;96.71
58373;BME280;44177;43.356;27.672;2024-01-30T12:05:21;100237.34;;;1.28;95.75
58373;BME280;44177;43.356;27.672;2024-01-30T12:07:47;100207.44;;;1.00;96.71
58373;BME280;44177;43.356;27.672;2024-01-30T12:10:14;100220.28;;;1.10;96.24
58373;BME280;44177;43.356;27.672;2024-01-30T12:12:41;100165.03;;;0.78;95.64
58373;BME280;44177;43.356;27.672;2024-01-30T12:15:08;100217.84;;;1.08;95.79
58373;BME280;44177;43.356;27.672;2024-01-30T12:17:34;100210.34;;;1.22;95.60
58373;BME280;44177;43.356;27.672;2024-01-30T12:22:38;100227.97;;;1.54;96.06
58373;BME280;44177;43.356;27.672;2024-01-30T12:25:09;100214.63;;;1.59;95.62
58373;BME280;44177;43.356;27.672;2024-01-30T12:27:36;100216.25;;;1.60;95.55
58373;BME280;44177;43.356;27.672;2024-01-30T12:30:05;100222.84;;;1.52;94.96
58373;BME280;44177;43.356;27.672;2024-01-30T12:32:31;100223.97;;;1.56;94.64
58373;BME280;44177;43.356;27.672;2024-01-30T12:34:56;100204.47;;;1.49;94.70